Time;durP1;ratioP1;P1;durP2;ratioP2;P2;SDS_P1;SDS_P2;PMS_P1;PMS_P2;Temp;Humidity;BMP_temperature;BMP_pressure;BME280_temperature;BME280_humidity;BME280_pressure;Samples;Min_cycle;Max_cycle;Signal;HPM_P1;HPM_P2
2021/09/11 00:04:15;;;;;;;13.45;12.05;;;15.20;99.90;;;15.74;100.00;95262.00;2384989;55;34045;-59
2021/09/11 00:07:01;;;;;;;13.98;12.57;;;15.10;99.90;;;15.63;100.00;95279.00;2150717;58;27322;-59
2021/09/11 00:09:47;;;;;;;14.87;13.13;;;15.20;99.90;;;15.67;100.00;95275.00;2149834;56;26883;-61
2021/09/11 00:15:31;;;;;;;16.80;14.50;;;15.10;99.90;;;15.72;100.00;95263.00;2328603;56;34983;-60
2021/09/11 00:21:16;;;;;;;16.08;13.70;;;15.20;99.90;;;15.80;100.00;95253.00;2420400;54;34288;-60
2021/09/11 00:24:03;;;;;;;14.93;13.35;;;15.20;99.90;;;15.76;100.00;95281.00;2242281;54;27281;-60
2021/09/11 00:26:50;;;;;;;18.08;15.13;;;15.20;99.90;;;15.79;100.00;95281.00;2470532;54;26882;-59
2021/09/11 00:32:34;;;;;;;16.92;15.10;;;15.20;99.90;;;15.80;100.00;95267.00;2393772;55;34117;-60
2021/09/11 00:35:21;;;;;;;16.45;14.25;;;15.20;99.90;;;15.73;100.00;95282.00;2188248;55;26184;-60
2021/09/11 00:38:08;;;;;;;16.55;14.65;;;15.20;99.90;;;15.71;100.00;95278.00;2405395;55;26883;-60
2021/09/11 00:40:54;;;;;;;17.90;15.85;;;15.30;99.90;;;15.77;100.00;95275.00;2192341;55;27845;-60
2021/09/11 00:46:41;;;;;;;18.62;16.80;;;15.30;99.90;;;15.97;100.00;95268.00;2377620;55;34506;-60
2021/09/11 00:49:27;;;;;;;18.33;16.05;;;15.40;99.90;;;16.00;100.00;95283.00;2184548;55;26813;-60
2021/09/11 00:52:14;;;;;;;21.87;18.08;;;15.40;99.90;;;15.95;100.00;95286.00;2221516;55;27011;-60
2021/09/11 00:57:56;;;;;;;19.50;17.42;;;15.40;99.90;;;16.06;100.00;95282.00;2315039;56;34990;-60
2021/09/11 01:00:42;;;;;;;19.95;17.85;;;15.40;99.90;;;15.91;100.00;95295.00;2100372;59;27202;-60
2021/09/11 01:03:29;;;;;;;20.02;17.90;;;15.40;99.90;;;15.90;100.00;95298.00;2094930;59;26285;-60
2021/09/11 01:06:15;;;;;;;19.75;17.65;;;15.40;99.90;;;15.87;100.00;95299.00;2304271;57;26903;-60
2021/09/11 01:12:00;;;;;;;19.33;17.33;;;15.40;99.90;;;15.92;100.00;95297.00;2363525;56;34049;-60
2021/09/11 01:17:46;;;;;;;19.75;17.75;;;15.40;99.90;;;16.00;100.00;95301.00;2345174;56;34081;-59
2021/09/11 01:20:33;;;;;;;18.90;16.90;;;15.30;99.90;;;15.82;100.00;95317.00;2132906;58;26887;-60
2021/09/11 01:23:20;;;;;;;18.87;17.05;;;15.30;99.90;;;15.80;100.00;95320.00;2343873;57;26774;-60
2021/09/11 01:26:07;;;;;;;18.65;16.35;;;15.30;99.90;;;15.85;100.00;95320.00;2119844;58;26759;-60
2021/09/11 01:28:53;;;;;;;18.23;16.33;;;15.30;99.90;;;15.83;100.00;95318.00;2112729;58;26881;-61
2021/09/11 01:31:40;;;;;;;20.33;16.92;;;15.30;99.90;;;15.78;100.00;95322.00;2338550;56;26665;-60
2021/09/11 01:34:30;;;;;;;18.33;15.95;;;15.30;99.90;;;15.79;100.00;95317.00;2164596;56;27141;-61
2021/09/11 01:37:17;;;;;;;16.25;14.55;;;15.30;99.90;;;15.79;100.00;95321.00;2350614;56;26686;-60
2021/09/11 01:40:06;;;;;;;16.33;14.73;;;15.30;99.90;;;15.84;100.00;95312.00;2137378;57;26177;-60
2021/09/11 01:42:52;;;;;;;16.73;15.13;;;15.30;99.90;;;15.84;100.00;95318.00;2372694;57;27244;-60
2021/09/11 01:45:39;;;;;;;16.98;15.27;;;15.40;99.90;;;15.98;100.00;95314.00;2160889;58;26561;-60
2021/09/11 01:48:26;;;;;;;15.05;13.50;;;15.40;99.90;;;16.03;100.00;95314.00;2373025;57;27726;-60
2021/09/11 01:51:13;;;;;;;14.43;12.93;;;15.50;99.90;;;16.02;100.00;95313.00;2160970;58;26692;-61
2021/09/11 01:53:59;;;;;;;13.02;11.73;;;15.50;99.90;;;16.07;100.00;95311.00;2373130;57;26813;-60
2021/09/11 01:59:43;;;;;;;15.18;13.62;;;15.50;99.90;;;16.20;100.00;95299.00;2408019;55;33886;-60
2021/09/11 02:02:29;;;;;;;14.27;12.88;;;15.50;99.90;;;15.89;100.00;95320.00;2194946;56;27016;-60
2021/09/11 02:05:17;;;;;;;14.32;12.95;;;15.40;99.90;;;15.83;100.00;95325.00;2416101;55;26927;-61
2021/09/11 02:08:03;;;;;;;14.65;13.18;;;15.30;99.90;;;15.82;100.00;95331.00;2196650;56;26750;-60
2021/09/11 02:10:50;;;;;;;14.52;13.02;;;15.30;99.90;;;15.83;100.00;95337.00;2195303;56;27303;-59
2021/09/11 02:13:36;;;;;;;15.25;13.65;;;15.30;99.90;;;15.84;100.00;95342.00;2195017;56;27507;-60
2021/09/11 02:16:23;;;;;;;14.65;12.50;;;15.40;99.90;;;15.87;100.00;95347.00;2196246;56;27566;-60
2021/09/11 02:22:10;;;;;;;13.05;11.85;;;15.30;99.90;;;15.95;100.00;95334.00;2340343;56;34599;-60
2021/09/11 02:24:57;;;;;;;13.65;12.25;;;15.40;99.90;;;15.91;100.00;95351.00;2114876;57;26793;-61
2021/09/11 02:27:43;;;;;;;16.23;13.10;;;15.40;99.90;;;15.92;100.00;95353.00;2310980;57;27445;-60
2021/09/11 02:33:27;;;;;;;15.10;13.62;;;15.40;99.90;;;16.04;100.00;95342.00;2402016;55;34298;-61
2021/09/11 02:36:14;;;;;;;14.82;13.43;;;15.40;99.90;;;15.85;100.00;95359.00;2185969;56;26700;-61
2021/09/11 02:39:01;;;;;;;14.07;12.70;;;15.30;99.90;;;15.82;100.00;95364.00;2401944;55;27250;-60
2021/09/11 02:44:44;;;;;;;15.60;14.00;;;15.30;99.90;;;15.76;100.00;95349.00;2352180;56;34274;-61
2021/09/11 02:47:31;;;;;;;15.80;14.25;;;15.20;99.90;;;15.69;100.00;95366.00;2112652;58;26739;-60
2021/09/11 02:50:17;;;;;;;13.62;12.23;;;15.20;99.90;;;15.64;100.00;95371.00;2313385;57;27264;-59
2021/09/11 02:56:01;;;;;;;13.57;12.10;;;15.10;99.90;;;15.68;100.00;95340.00;2544719;52;33498;-61
2021/09/11 02:58:48;;;;;;;12.30;11.15;;;15.10;99.90;;;15.60;100.00;95366.00;2268838;54;26746;-61
2021/09/11 03:01:34;;;;;;;13.27;11.88;;;15.10;99.90;;;15.58;100.00;95367.00;2511045;53;27074;-61
2021/09/11 03:04:21;;;;;;;13.82;12.35;;;15.10;99.90;;;15.57;100.00;95368.00;2274677;53;26854;-62
2021/09/11 03:07:07;;;;;;;11.73;10.52;;;15.10;99.90;;;15.61;100.00;95357.00;2523971;52;26703;-62
2021/09/11 03:09:54;;;;;;;10.70;9.73;;;15.10;99.90;;;15.57;100.00;95356.00;2277715;53;26129;-61
2021/09/11 03:12:40;;;;;;;11.55;10.40;;;15.10;99.90;;;15.62;100.00;95367.00;2518829;53;27330;-61
2021/09/11 03:15:27;;;;;;;11.60;10.45;;;15.10;99.90;;;15.61;100.00;95357.00;2519699;52;26684;-62
2021/09/11 03:18:13;;;;;;;10.98;9.88;;;15.10;99.90;;;15.61;100.00;95353.00;2253013;53;26800;-60
2021/09/11 03:20:59;;;;;;;13.07;9.95;;;15.10;99.90;;;15.58;100.00;95353.00;2508046;53;27234;-60
2021/09/11 03:23:46;;;;;;;11.50;10.13;;;15.10;99.90;;;15.64;100.00;95354.00;2279160;53;26521;-61
2021/09/11 03:26:32;;;;;;;11.88;10.68;;;15.10;99.90;;;15.60;100.00;95345.00;2524162;53;26816;-60
2021/09/11 03:29:19;;;;;;;11.38;10.38;;;15.10;99.90;;;15.55;100.00;95342.00;2517739;53;27255;-60
2021/09/11 03:32:08;;;;;;;13.05;11.05;;;15.00;99.90;;;15.43;100.00;95341.00;2280492;53;26553;-60
2021/09/11 03:34:54;;;;;;;13.02;10.55;;;15.00;99.90;;;15.38;100.00;95349.00;2270043;53;26740;-60
2021/09/11 03:37:41;;;;;;;13.73;11.60;;;14.90;99.90;;;15.40;100.00;95352.00;2505100;53;26692;-59
2021/09/11 03:40:27;;;;;;;12.75;10.88;;;14.90;99.90;;;15.35;100.00;95352.00;2240606;55;26135;-60
2021/09/11 03:43:13;;;;;;;11.50;10.40;;;14.90;99.90;;;15.30;100.00;95350.00;2229324;55;26622;-59
2021/09/11 03:46:00;;;;;;;12.82;11.40;;;14.90;99.90;;;15.32;100.00;95353.00;2457713;54;26125;-60
2021/09/11 03:48:46;;;;;;;12.05;10.95;;;14.90;99.90;;;15.30;100.00;95355.00;2230920;55;26165;-59
2021/09/11 03:51:34;;;;;;;13.32;11.95;;;14.90;99.90;;;15.30;100.00;95347.00;2460124;54;27275;-60
2021/09/11 03:54:21;;;;;;;12.75;11.50;;;14.90;99.90;;;15.29;100.00;95347.00;2231837;53;26838;-60
2021/09/11 03:57:08;;;;;;;13.30;11.90;;;14.90;99.90;;;15.33;100.00;95349.00;2460779;53;27186;-60
2021/09/11 04:02:51;;;;;;;12.32;11.12;;;14.90;99.90;;;15.40;100.00;95323.00;2383811;55;33281;-60
2021/09/11 04:05:37;;;;;;;13.30;11.30;;;14.80;99.90;;;15.25;100.00;95344.00;2182136;56;27250;-60
2021/09/11 04:08:24;;;;;;;12.95;11.65;;;14.80;99.90;;;15.20;100.00;95338.00;2362045;55;26811;-60
2021/09/11 04:11:11;;;;;;;13.18;11.88;;;14.80;99.90;;;15.26;100.00;95340.00;2175260;57;26888;-60
2021/09/11 04:13:58;;;;;;;12.07;10.77;;;14.70;99.90;;;15.17;100.00;95344.00;2377889;55;26105;-60
2021/09/11 04:16:44;;;;;;;12.13;10.93;;;14.70;99.90;;;15.17;100.00;95338.00;2151317;56;27197;-60
2021/09/11 04:19:30;;;;;;;13.13;11.63;;;14.70;99.90;;;15.19;100.00;95342.00;2154499;56;27316;-60
2021/09/11 04:22:17;;;;;;;12.30;11.03;;;14.70;99.90;;;15.13;100.00;95339.00;2387322;56;26845;-60
2021/09/11 04:25:06;;;;;;;12.13;10.93;;;14.70;99.90;;;15.13;100.00;95334.00;2185073;56;26616;-61
2021/09/11 04:27:52;;;;;;;11.82;10.40;;;14.70;99.90;;;15.09;100.00;95338.00;2410157;56;26605;-60
2021/09/11 04:33:34;;;;;;;12.15;10.82;;;14.70;99.90;;;15.28;100.00;95311.00;2423134;55;33793;-60
2021/09/11 04:36:21;;;;;;;12.13;10.80;;;14.70;99.90;;;15.22;100.00;95344.00;2184064;57;26168;-60
2021/09/11 04:39:07;;;;;;;11.88;10.52;;;14.70;99.90;;;15.19;100.00;95339.00;2366790;56;27339;-60
2021/09/11 04:41:54;;;;;;;11.12;10.07;;;14.70;99.90;;;15.14;100.00;95342.00;2377001;56;26666;-61
2021/09/11 04:44:40;;;;;;;12.15;10.63;;;14.70;99.90;;;15.10;100.00;95337.00;2158112;57;26524;-61
2021/09/11 04:47:27;;;;;;;12.43;10.52;;;14.60;99.90;;;15.03;100.00;95348.00;2157957;58;26195;-60
2021/09/11 04:50:13;;;;;;;11.35;10.15;;;14.60;99.90;;;15.05;100.00;95349.00;2137426;58;27319;-62
2021/09/11 04:53:00;;;;;;;11.23;10.13;;;14.60;99.90;;;15.04;100.00;95356.00;2334208;57;27479;-60
2021/09/11 04:55:47;;;;;;;11.95;10.75;;;14.50;99.90;;;15.01;100.00;95354.00;2140384;58;26665;-61
2021/09/11 04:58:33;;;;;;;11.57;10.38;;;14.60;99.90;;;15.07;100.00;95352.00;2349543;57;27397;-60
2021/09/11 05:01:20;;;;;;;11.57;10.38;;;14.60;99.90;;;15.11;100.00;95351.00;2140782;58;26652;-61
2021/09/11 05:04:07;;;;;;;11.88;10.68;;;14.60;99.90;;;15.10;100.00;95350.00;2315517;57;27265;-60
2021/09/11 05:06:54;;;;;;;11.35;10.25;;;14.60;99.90;;;15.06;100.00;95349.00;2313936;57;27228;-60
2021/09/11 05:12:38;;;;;;;11.12;10.02;;;14.50;99.90;;;15.07;100.00;95329.00;2427441;54;34024;-61
2021/09/11 05:15:25;;;;;;;11.40;10.30;;;14.50;99.90;;;15.02;100.00;95350.00;2221364;54;26599;-60
2021/09/11 05:21:08;;;;;;;10.50;9.45;;;14.50;99.90;;;15.18;100.00;95345.00;2440609;54;34752;-60
2021/09/11 05:23:54;;;;;;;10.98;9.95;;;14.50;99.90;;;15.08;100.00;95367.00;2431404;55;26770;-60
2021/09/11 05:26:41;;;;;;;10.80;9.77;;;14.50;99.90;;;15.06;100.00;95362.00;2218122;55;26645;-60
2021/09/11 05:29:27;;;;;;;10.80;9.70;;;14.50;99.90;;;15.03;100.00;95370.00;2433182;54;26384;-60
2021/09/11 05:32:14;;;;;;;11.43;9.50;;;14.60;99.90;;;15.24;100.00;95366.00;2235964;54;26650;-60
2021/09/11 05:35:00;;;;;;;10.18;9.27;;;14.70;99.90;;;15.19;100.00;95368.00;2464220;54;26099;-61
2021/09/11 05:37:47;;;;;;;9.75;8.77;;;14.60;99.90;;;15.14;100.00;95372.00;2234214;54;26627;-61
2021/09/11 05:40:33;;;;;;;10.93;9.63;;;14.70;99.90;;;15.12;100.00;95377.00;2233978;54;26752;-60
2021/09/11 05:43:20;;;;;;;10.07;9.07;;;14.70;99.90;;;15.15;100.00;95376.00;2461868;54;26122;-61
2021/09/11 05:46:06;;;;;;;9.40;8.50;;;14.70;99.90;;;15.15;100.00;95379.00;2234649;54;26746;-60
2021/09/11 05:48:53;;;;;;;10.65;9.55;;;14.70;99.90;;;15.24;100.00;95385.00;2462377;54;26846;-60
2021/09/11 05:51:39;;;;;;;11.32;8.77;;;14.80;99.90;;;15.30;100.00;95384.00;2235234;54;26682;-60
2021/09/11 05:54:26;;;;;;;9.63;8.73;;;14.80;99.90;;;15.37;100.00;95385.00;2461805;54;26808;-60
2021/09/11 05:57:12;;;;;;;12.20;8.85;;;14.90;99.90;;;15.40;100.00;95392.00;2233981;54;27674;-60
2021/09/11 06:00:00;;;;;;;9.18;8.27;;;15.00;99.90;;;15.47;100.00;95390.00;2458625;54;26765;-60
2021/09/11 06:02:46;;;;;;;9.88;8.75;;;15.00;99.90;;;15.49;100.00;95391.00;2215128;54;26644;-60
2021/09/11 06:08:30;;;;;;;9.27;8.38;;;15.20;99.90;;;15.88;100.00;95364.00;2437183;54;34818;-60
2021/09/11 06:11:16;;;;;;;8.98;8.18;;;15.30;99.90;;;15.94;100.00;95385.00;2365807;55;27088;-60
2021/09/11 06:14:03;;;;;;;9.15;7.90;;;15.50;99.90;;;16.10;100.00;95379.00;2167017;56;26861;-61
2021/09/11 06:16:49;;;;;;;9.13;8.20;;;15.60;99.90;;;16.11;100.00;95386.00;2396132;54;26746;-60
2021/09/11 06:19:36;;;;;;;9.45;7.90;;;15.60;99.90;;;16.21;100.00;95381.00;2177752;56;26648;-60
2021/09/11 06:22:23;;;;;;;8.30;7.50;;;15.70;99.90;;;16.38;100.00;95376.00;2387266;55;26918;-60
2021/09/11 06:25:12;;;;;;;8.00;7.20;;;15.90;99.90;;;16.56;100.00;95371.00;2203251;55;27077;-60
2021/09/11 06:27:59;;;;;;;8.25;7.45;;;16.00;99.90;;;16.66;100.00;95363.00;2428441;55;26783;-60
2021/09/11 06:30:45;;;;;;;8.77;7.93;;;16.10;99.90;;;16.75;100.00;95362.00;2192457;55;26657;-60
2021/09/11 06:33:32;;;;;;;8.80;7.90;;;16.20;99.90;;;16.84;100.00;95358.00;2195527;55;26726;-60
2021/09/11 06:36:19;;;;;;;8.52;7.82;;;16.40;99.90;;;17.02;100.00;95364.00;2424822;54;26643;-61
2021/09/11 06:39:05;;;;;;;8.20;7.50;;;16.60;99.90;;;17.42;100.00;95361.00;2212958;55;26711;-60
2021/09/11 06:41:51;;;;;;;7.85;7.15;;;16.90;99.90;;;17.78;100.00;95351.00;2408805;55;27293;-60
2021/09/11 06:44:38;;;;;;;8.07;7.28;;;17.30;99.90;;;18.34;100.00;95354.00;2216978;56;26881;-61
2021/09/11 06:47:24;;;;;;;7.65;7.03;;;17.40;99.90;;;18.43;100.00;95352.00;2433375;55;26854;-60
2021/09/11 06:53:09;;;;;;;8.20;7.37;;;18.30;99.90;;;19.53;100.00;95349.00;2408377;55;33822;-60
2021/09/11 06:58:52;;;;;;;6.90;6.20;;;18.50;99.90;;;20.54;100.00;95341.00;2386993;55;34121;-60
2021/09/11 07:01:38;;;;;;;6.32;5.80;;;19.20;99.90;;;20.38;100.00;95347.00;2359106;56;26919;-61
2021/09/11 07:04:25;;;;;;;6.20;5.70;;;19.00;99.90;;;20.22;100.00;95343.00;2123839;56;26743;-61
2021/09/11 07:07:11;;;;;;;5.78;5.28;;;19.00;99.90;;;19.88;100.00;95342.00;2139905;57;26727;-61
2021/09/11 07:09:58;;;;;;;6.15;5.65;;;18.90;99.90;;;19.82;100.00;95345.00;2367319;56;26740;-61
2021/09/11 07:12:44;;;;;;;6.70;6.07;;;18.90;99.90;;;19.80;100.00;95337.00;2157209;57;26896;-61
2021/09/11 07:15:31;;;;;;;6.43;5.82;;;18.80;99.90;;;19.87;100.00;95340.00;2365146;56;26201;-61
2021/09/11 07:18:17;;;;;;;6.05;5.45;;;19.00;99.90;;;19.95;100.00;95337.00;2151394;57;26733;-61
2021/09/11 07:21:05;;;;;;;7.22;6.43;;;18.90;99.90;;;19.82;100.00;95331.00;2371871;57;26995;-61
2021/09/11 07:23:52;;;;;;;6.05;5.55;;;18.90;99.90;;;19.87;100.00;95337.00;2153410;57;27278;-61
2021/09/11 07:29:34;;;;;;;6.85;6.15;;;18.90;99.90;;;19.85;100.00;95334.00;2364740;55;34841;-61
2021/09/11 07:32:20;;;;;;;7.57;6.00;;;18.80;99.90;;;19.71;100.00;95335.00;2314099;57;26836;-61
2021/09/11 07:38:06;;;;;;;6.55;5.95;;;18.70;99.90;;;19.50;100.00;95334.00;2408327;55;33717;-61
2021/09/11 07:40:53;;;;;;;6.30;5.70;;;18.50;99.90;;;19.33;100.00;95340.00;2434839;54;27195;-61
2021/09/11 07:43:39;;;;;;;6.62;6.03;;;18.60;99.90;;;19.42;100.00;95342.00;2193218;56;26787;-61
2021/09/11 07:46:25;;;;;;;6.12;5.40;;;18.70;99.90;;;19.52;100.00;95335.00;2396758;55;26170;-61
2021/09/11 07:49:12;;;;;;;6.50;5.90;;;18.70;99.90;;;19.47;100.00;95339.00;2205131;56;27265;-61
2021/09/11 07:51:58;;;;;;;6.55;5.95;;;18.40;99.90;;;19.03;100.00;95344.00;2182894;56;26561;-61
2021/09/11 07:57:41;;;;;;;7.82;6.22;;;18.20;99.90;;;18.86;100.00;95344.00;2441674;54;34154;-61
2021/09/11 08:00:28;;;;;;;6.90;6.30;;;18.10;99.90;;;18.78;100.00;95345.00;2442112;55;27023;-61
2021/09/11 08:03:14;;;;;;;7.05;6.45;;;18.10;99.90;;;18.76;100.00;95350.00;2462079;54;27318;-61
2021/09/11 08:06:07;;;;;;;6.57;5.97;;;18.30;99.90;;;19.05;100.00;95351.00;2208878;56;26777;-61
2021/09/11 08:08:53;;;;;;;5.75;5.20;;;18.60;99.90;;;19.48;100.00;95347.00;2214670;54;26900;-61
2021/09/11 08:11:40;;;;;;;6.22;5.68;;;18.80;99.90;;;19.80;100.00;95341.00;2474342;54;26092;-61
2021/09/11 08:20:19;;;;;;;6.10;5.60;;;18.90;99.90;;;19.81;100.00;95351.00;2413806;55;33697;-62
2021/09/11 08:23:06;;;;;;;7.00;5.25;;;18.90;99.90;;;19.86;100.00;95357.00;2407541;55;26593;-62
2021/09/11 08:25:52;;;;;;;5.87;5.37;;;18.80;99.90;;;19.75;100.00;95357.00;2201937;54;27290;-62
2021/09/11 08:28:39;;;;;;;6.10;5.50;;;18.90;99.90;;;19.85;100.00;95352.00;2207920;56;26740;-61
2021/09/11 08:31:27;;;;;;;6.47;5.87;;;19.00;99.90;;;19.91;100.00;95349.00;2432765;55;26744;-62
2021/09/11 08:34:13;;;;;;;6.95;6.18;;;19.10;99.90;;;20.12;100.00;95349.00;2211583;56;27251;-62
2021/09/11 08:37:00;;;;;;;7.35;6.72;;;19.30;99.90;;;20.09;100.00;95349.00;2429454;55;26992;-61
2021/09/11 08:39:46;;;;;;;7.68;6.20;;;19.10;99.90;;;19.93;100.00;95353.00;2210894;56;26638;-61
2021/09/11 08:42:33;;;;;;;7.10;6.25;;;19.10;99.90;;;20.14;100.00;95357.00;2433677;55;26785;-61
2021/09/11 08:48:17;;;;;;;6.95;6.22;;;19.20;99.90;;;20.21;100.00;95350.00;2409900;55;34649;-61
2021/09/11 08:51:04;;;;;;;6.10;5.60;;;19.50;99.90;;;20.49;100.00;95349.00;2140833;58;26757;-61
2021/09/11 08:53:50;;;;;;;6.32;5.72;;;19.70;99.90;;;20.83;100.00;95351.00;2340620;57;26761;-61
2021/09/11 08:56:39;;;;;;;5.78;5.28;;;20.10;99.90;;;21.28;100.00;95351.00;2134608;58;27271;-61
2021/09/11 08:59:27;;;;;;;6.00;5.50;;;20.30;99.90;;;21.55;100.00;95344.00;2354072;56;26145;-62
2021/09/11 09:02:13;;;;;;;5.78;5.28;;;20.40;99.90;;;21.42;100.00;95347.00;2161620;56;26213;-61
2021/09/11 09:07:56;;;;;;;5.82;5.15;;;20.40;99.90;;;21.48;100.00;95349.00;2333235;55;33866;-61
2021/09/11 09:10:42;;;;;;;5.50;5.00;;;20.30;99.90;;;21.42;100.00;95353.00;2139517;57;26918;-60
2021/09/11 09:13:49;;;;;;;6.43;4.72;;;20.20;99.90;;;21.33;100.00;95351.00;2145748;56;26675;-60
2021/09/11 09:19:34;;;;;;;5.32;4.93;;;20.60;99.90;;;22.10;100.00;95353.00;2393999;55;34551;-60
2021/09/11 09:22:24;;;;;;;5.32;4.82;;;20.80;99.90;;;22.05;100.00;95355.00;2375319;55;27342;-61
2021/09/11 09:25:23;;;;;;;5.32;4.82;;;21.00;99.90;;;22.01;100.00;95349.00;2181377;55;26952;-60
2021/09/11 09:31:10;;;;;;;5.57;5.07;;;20.80;99.90;;;21.92;100.00;95344.00;2474186;53;33619;-60
2021/09/11 09:33:56;;;;;;;5.28;4.87;;;20.80;99.90;;;21.87;100.00;95355.00;2214670;56;26166;-60
2021/09/11 09:36:43;;;;;;;5.32;4.82;;;20.90;99.90;;;22.06;100.00;95340.00;2434723;55;27260;-60
2021/09/11 09:39:30;;;;;;;5.55;5.05;;;21.00;99.90;;;22.41;100.00;95338.00;2434850;54;26628;-61
2021/09/11 09:42:18;;;;;;;5.80;5.15;;;21.40;99.90;;;22.89;100.00;95346.00;2211415;56;26719;-61
2021/09/11 09:45:07;;;;;;;5.80;5.30;;;21.40;99.90;;;22.65;100.00;95344.00;2434623;54;26623;-60
2021/09/11 09:51:06;;;;;;;6.37;5.78;;;21.50;99.90;;;22.58;100.00;95350.00;2343943;55;33807;-60
2021/09/11 09:53:52;;;;;;;6.60;6.00;;;21.00;99.90;;;21.74;100.00;95359.00;2368178;56;26660;-60
2021/09/11 09:56:39;;;;;;;5.87;5.37;;;20.90;99.90;;;21.96;100.00;95348.00;2185428;56;26801;-60
2021/09/11 09:59:26;;;;;;;5.57;5.07;;;21.00;99.90;;;22.05;100.00;95347.00;2184905;56;27226;-60
2021/09/11 10:02:13;;;;;;;5.72;5.22;;;21.00;99.90;;;21.81;100.00;95345.00;2403315;55;26681;-60
2021/09/11 10:04:59;;;;;;;5.45;4.95;;;20.80;99.90;;;21.60;100.00;95346.00;2183730;56;27369;-60
2021/09/11 10:08:08;;;;;;;5.82;5.32;;;20.50;99.90;;;21.32;100.00;95342.00;2401214;55;27186;-60
2021/09/11 10:14:03;;;;;;;5.57;5.07;;;20.60;99.90;;;21.95;100.00;95336.00;2344197;56;34830;-60
2021/09/11 10:17:00;;;;;;;6.28;4.93;;;21.10;99.90;;;22.33;100.00;95331.00;2352264;56;26643;-60
2021/09/11 10:19:56;;;;;;;5.12;4.55;;;21.40;99.90;;;22.77;100.00;95332.00;2161894;57;27373;-60
2021/09/11 10:23:04;;;;;;;5.75;5.15;;;21.70;99.90;;;23.29;100.00;95336.00;2143995;58;27450;-60
2021/09/11 10:25:51;;;;;;;5.80;5.12;;;22.20;99.90;;;23.83;100.00;95331.00;2154378;58;26820;-60
2021/09/11 10:28:37;;;;;;;6.97;5.25;;;23.60;99.90;;;26.12;100.00;95323.00;2157711;58;26759;-60
2021/09/11 10:31:23;;;;;;;5.37;4.93;;;24.60;99.90;;;27.00;100.00;95329.00;2372970;57;26859;-60
2021/09/11 10:34:15;;;;;;;6.30;5.80;;;24.20;99.90;;;25.93;100.00;95319.00;2158331;58;27496;-60
2021/09/11 10:37:05;;;;;;;5.12;4.62;;;24.10;99.90;;;26.32;100.00;95312.00;2371196;57;26897;-60
2021/09/11 10:40:25;;;;;;;4.65;4.25;;;24.50;99.90;;;26.36;100.00;95310.00;2158223;58;26624;-61
2021/09/11 10:43:31;;;;;;;5.37;4.12;;;25.10;99.90;;;26.84;100.00;95309.00;2160255;58;26732;-60
2021/09/11 10:46:18;;;;;;;4.90;4.40;;;24.80;99.90;;;26.86;100.00;95307.00;2157465;58;26665;-61
2021/09/11 10:49:24;;;;;;;4.78;3.97;;;26.10;99.90;;;29.49;100.00;95304.00;2157438;58;26858;-61
2021/09/11 10:52:12;;;;;;;5.72;4.20;;;27.50;99.90;;;30.65;84.96;95298.00;2158607;58;27858;-61
2021/09/11 10:54:59;;;;;;;4.82;4.22;;;27.70;99.90;;;31.09;89.23;95293.00;2157320;58;26743;-60
2021/09/11 11:00:57;;;;;;;4.82;3.90;;;28.00;99.90;;;31.74;75.54;95281.00;2353687;56;34658;-60
2021/09/11 11:04:07;;;;;;;3.85;3.55;;;27.20;99.90;;;29.41;87.70;95287.00;2144797;59;26910;-61
2021/09/11 11:09:55;;;;;;;4.10;3.28;;;26.70;99.90;;;28.41;96.11;95275.00;2391741;55;34478;-60
2021/09/11 11:12:44;;;;;;;3.90;3.60;;;24.80;99.90;;;25.30;100.00;95283.00;2177798;57;26701;-59
2021/09/11 11:15:31;;;;;;;4.03;3.70;;;23.10;99.90;;;23.53;100.00;95275.00;2403097;56;26655;-60
2021/09/11 11:18:17;;;;;;;3.37;3.08;;;24.10;99.90;;;26.71;100.00;95273.00;2185572;57;26775;-61
2021/09/11 11:21:04;;;;;;;3.30;3.00;;;24.60;99.90;;;26.90;100.00;95276.00;2397236;56;26688;-61
2021/09/11 11:23:50;;;;;;;3.25;2.90;;;25.00;99.90;;;27.12;100.00;95278.00;2173781;56;27166;-60
2021/09/11 11:26:37;;;;;;;4.47;3.50;;;25.10;99.90;;;26.94;100.00;95268.00;2392103;56;27309;-60
2021/09/11 11:29:25;;;;;;;3.40;3.10;;;25.20;99.90;;;27.66;100.00;95260.00;2174272;56;27110;-60
2021/09/11 11:32:12;;;;;;;3.25;2.97;;;25.30;99.90;;;27.18;100.00;95264.00;2392134;56;26814;-60
2021/09/11 11:34:59;;;;;;;3.40;3.10;;;25.50;99.90;;;26.89;100.00;95269.00;2141302;57;26644;-60
2021/09/11 11:43:41;;;;;;;3.47;3.17;;;24.80;99.90;;;25.71;100.00;95252.00;2383249;55;34778;-60
2021/09/11 11:46:30;;;;;;;4.15;3.42;;;24.20;99.90;;;24.90;100.00;95250.00;2385842;56;27380;-60
2021/09/11 11:49:16;;;;;;;4.05;3.62;;;24.00;99.90;;;24.81;100.00;95252.00;2183160;57;26768;-61
2021/09/11 11:52:04;;;;;;;4.22;3.87;;;23.40;99.90;;;24.18;100.00;95247.00;2391514;56;26766;-60
2021/09/11 11:54:52;;;;;;;3.90;3.40;;;22.70;99.90;;;23.46;100.00;95247.00;2386271;55;26657;-60
2021/09/11 11:57:38;;;;;;;4.03;3.65;;;22.50;99.90;;;23.25;100.00;95254.00;2374028;56;26208;-60
2021/09/11 12:00:38;;;;;;;3.97;3.67;;;22.80;99.90;;;23.33;100.00;95253.00;2159794;56;27272;-61
2021/09/11 12:06:36;;;;;;;4.10;3.80;;;23.70;99.90;;;24.56;100.00;95239.00;2411385;55;34597;-60
2021/09/11 12:09:22;;;;;;;4.03;3.72;;;23.60;99.90;;;24.07;100.00;95241.00;2165966;56;26633;-60
2021/09/11 12:12:12;;;;;;;3.97;3.58;;;23.30;99.90;;;23.90;100.00;95235.00;2393998;56;26630;-60
2021/09/11 12:18:10;;;;;;;4.57;4.18;;;22.80;99.90;;;23.25;100.00;95221.00;2380984;55;34472;-60
2021/09/11 12:20:57;;;;;;;4.47;4.07;;;22.20;99.90;;;22.77;100.00;95227.00;2158794;56;26182;-60
2021/09/11 12:23:48;;;;;;;4.80;4.40;;;21.70;99.90;;;22.45;100.00;95224.00;2164725;56;26828;-60
2021/09/11 12:26:36;;;;;;;5.10;4.60;;;21.60;99.90;;;22.26;100.00;95228.00;2152021;56;26612;-60
2021/09/11 12:29:28;;;;;;;5.00;4.53;;;21.30;99.90;;;21.84;100.00;95227.00;2137344;57;27038;-60
2021/09/11 12:35:17;;;;;;;5.68;4.57;;;22.40;99.90;;;23.74;100.00;95215.00;2464852;53;33543;-60
2021/09/11 12:38:03;;;;;;;5.78;4.30;;;23.10;99.90;;;24.13;100.00;95210.00;2252694;55;26801;-59
2021/09/11 12:40:50;;;;;;;5.00;4.53;;;23.60;99.90;;;24.51;100.00;95215.00;2500802;53;26784;-61
2021/09/11 12:43:36;;;;;;;4.70;4.30;;;23.30;99.90;;;24.13;100.00;95218.00;2269156;54;26913;-59
2021/09/11 12:49:38;;;;;;;5.55;4.30;;;22.80;99.90;;;23.68;100.00;95205.00;2383268;55;33729;-59
2021/09/11 12:52:25;;;;;;;4.72;4.30;;;22.50;99.90;;;23.23;100.00;95213.00;2155520;56;26780;-59
2021/09/11 12:55:11;;;;;;;4.05;3.70;;;22.10;99.90;;;22.75;100.00;95203.00;2357084;56;26824;-59
2021/09/11 12:57:58;;;;;;;3.95;3.58;;;22.00;99.90;;;22.82;100.00;95201.00;2147359;56;26640;-60
2021/09/11 13:03:41;;;;;;;3.40;3.10;;;22.10;99.90;;;23.20;100.00;95193.00;2373980;55;33794;-59
2021/09/11 13:06:27;;;;;;;3.50;3.20;;;21.90;99.90;;;22.31;100.00;95202.00;2163124;56;26797;-59
2021/09/11 13:09:16;;;;;;;3.60;3.30;;;21.70;99.90;;;22.33;100.00;95192.00;2172286;56;27692;-60
2021/09/11 13:12:03;;;;;;;3.70;2.72;;;22.00;99.90;;;22.94;100.00;95192.00;2197586;56;27885;-59
2021/09/11 13:14:50;;;;;;;3.60;3.03;;;22.70;99.90;;;23.64;100.00;95202.00;2207619;56;26143;-59
2021/09/11 13:17:36;;;;;;;4.57;3.20;;;22.90;99.90;;;23.57;100.00;95192.00;2431467;55;26761;-60
2021/09/11 13:20:23;;;;;;;5.03;3.50;;;22.90;99.90;;;23.59;100.00;95185.00;2209624;56;26237;-60
2021/09/11 13:23:09;;;;;;;4.53;3.60;;;22.60;99.90;;;23.45;100.00;95195.00;2431162;55;26881;-59
2021/09/11 13:25:56;;;;;;;3.42;3.12;;;22.90;99.90;;;23.69;100.00;95185.00;2208284;56;26620;-60
2021/09/11 13:28:43;;;;;;;4.80;3.30;;;23.40;99.90;;;24.14;100.00;95182.00;2208144;56;27403;-60
2021/09/11 13:34:30;;;;;;;2.97;2.70;;;23.30;99.90;;;24.20;100.00;95168.00;2399578;55;33944;-59